Alhambra, Illinois
Current Conditions -  °F | °C
As of 1:45 PM on Thursday 27 Nov 2014 (Local Time) from KALN Reporting Station
Broken Clouds Broken Clouds  
Wind Chill: 22°   Ceiling: 3000
Heat Index: 32°   Visibility: 10mi
Dew Point: 19°   Wind: 14mph
Humidity: 60%   Direction: 320°NW
Pressure: 30.46"   Gusts: NA
Location:  38.89°N, 89.73°W
Report Text: KALN 271945Z 32012KT 10SM BKN030 BKN250 00/M07 A3046
Loading
Personal Weather Stations






























Interactive Weather Map New forecast layout! Learn more

10-Day Weather Forecast

Advertisements
Track Severe Weather on mobile